Time;durP1;ratioP1;P1;durP2;ratioP2;P2;SDS_P1;SDS_P2;PMS_P1;PMS_P2;Temp;Humidity;BMP_temperature;BMP_pressure;BME280_temperature;BME280_humidity;BME280_pressure;Samples;Min_cycle;Max_cycle;Signal;HPM_P1;HPM_P2
2021/09/20 00:01:19;;;;;;;6.57;5.10;;;;;;;;;;4346008;33;20139;-83
2021/09/20 00:03:44;;;;;;;8.00;5.18;;;;;;;;;;4346230;33;20131;-83
2021/09/20 00:06:10;;;;;;;7.50;5.53;;;;;;;;;;4332325;33;20163;-83
2021/09/20 00:08:35;;;;;;;6.82;4.57;;;;;;;;;;4346124;33;20139;-82
2021/09/20 00:11:01;;;;;;;6.50;4.97;;;;;;;;;;4345571;33;20194;-83
2021/09/20 00:13:26;;;;;;;7.35;5.28;;;;;;;;;;4345250;33;20140;-83
2021/09/20 00:15:52;;;;;;;6.78;4.80;;;;;;;;;;4345420;33;20151;-83
2021/09/20 00:18:19;;;;;;;7.10;4.65;;;;;;;;;;4344955;33;20201;-83
2021/09/20 00:20:47;;;;;;;6.30;4.72;;;;;;;;;;4345836;33;20190;-83
2021/09/20 00:23:12;;;;;;;7.28;4.65;;;;;;;;;;4345384;33;20162;-82
2021/09/20 00:25:37;;;;;;;7.22;4.70;;;;;;;;;;4345898;33;20267;-83
2021/09/20 00:28:03;;;;;;;7.30;5.00;;;;;;;;;;4331777;33;20171;-83
2021/09/20 00:30:31;;;;;;;6.45;4.62;;;;;;;;;;4333500;33;20184;-83
2021/09/20 00:32:56;;;;;;;7.62;4.65;;;;;;;;;;4330642;33;20171;-83
2021/09/20 00:35:22;;;;;;;7.82;4.43;;;;;;;;;;4330483;33;20204;-83
2021/09/20 00:37:47;;;;;;;6.50;4.55;;;;;;;;;;4330888;33;20245;-82
2021/09/20 00:40:15;;;;;;;5.90;4.43;;;;;;;;;;4330462;33;20170;-82
2021/09/20 00:42:43;;;;;;;7.12;4.53;;;;;;;;;;4330253;33;20147;-83
2021/09/20 00:45:11;;;;;;;6.50;4.25;;;;;;;;;;4316802;33;20160;-83
2021/09/20 00:47:36;;;;;;;7.10;4.45;;;;;;;;;;4330488;33;20144;-82
2021/09/20 00:50:05;;;;;;;5.10;4.20;;;;;;;;;;4330896;33;20135;-83
2021/09/20 00:52:33;;;;;;;7.07;4.40;;;;;;;;;;4330399;33;20166;-82
2021/09/20 00:54:59;;;;;;;7.03;4.32;;;;;;;;;;4330325;33;20204;-83
2021/09/20 00:57:30;;;;;;;6.55;4.32;;;;;;;;;;4330306;33;20576;-83
2021/09/20 00:59:56;;;;;;;6.62;4.53;;;;;;;;;;4330944;33;20596;-82
2021/09/20 01:02:21;;;;;;;8.13;3.80;;;;;;;;;;4330339;33;20215;-82
2021/09/20 01:04:47;;;;;;;6.10;4.20;;;;;;;;;;4330920;33;20497;-82
2021/09/20 01:07:12;;;;;;;7.28;4.32;;;;;;;;;;4330853;33;20441;-82
2021/09/20 01:09:40;;;;;;;8.20;4.80;;;;;;;;;;4330378;33;20542;-82
2021/09/20 01:12:09;;;;;;;5.35;4.28;;;;;;;;;;4330345;33;20211;-82
2021/09/20 01:14:35;;;;;;;6.05;4.37;;;;;;;;;;4331000;33;20199;-82
2021/09/20 01:17:02;;;;;;;5.95;4.50;;;;;;;;;;4317479;33;20175;-82
2021/09/20 01:19:29;;;;;;;8.07;4.65;;;;;;;;;;4317436;33;20152;-81
2021/09/20 01:22:05;;;;;;;5.15;4.03;;;;;;;;;;4330613;33;20140;-82
2021/09/20 01:24:46;;;;;;;6.35;4.57;;;;;;;;;;4330987;33;20232;-83
2021/09/20 01:27:21;;;;;;;5.70;4.50;;;;;;;;;;4317134;33;20521;-83
2021/09/20 01:29:50;;;;;;;8.02;4.40;;;;;;;;;;4332227;33;20158;-84
2021/09/20 01:32:15;;;;;;;6.78;4.90;;;;;;;;;;4333851;33;20144;-83
2021/09/20 01:35:07;;;;;;;6.55;4.80;;;;;;;;;;4320977;33;20475;-84
2021/09/20 01:37:54;;;;;;;;;;;;;;;;;;;;;
2021/09/20 01:40:27;;;;;;;5.47;4.43;;;;;;;;;;4334626;33;20174;-84
2021/09/20 01:42:55;;;;;;;6.50;4.55;;;;;;;;;;4334195;33;20158;-84
2021/09/20 01:45:40;;;;;;;6.32;4.62;;;;;;;;;;4333988;33;20198;-85
2021/09/20 01:48:16;;;;;;;7.30;4.97;;;;;;;;;;4333775;33;20462;-83
2021/09/20 01:50:51;;;;;;;5.90;4.93;;;;;;;;;;4333184;33;20132;-83
2021/09/20 01:53:17;;;;;;;7.28;5.15;;;;;;;;;;4319684;33;20226;-83
2021/09/20 01:55:42;;;;;;;7.15;5.07;;;;;;;;;;4333432;33;20178;-83
2021/09/20 01:58:10;;;;;;;7.60;4.87;;;;;;;;;;4333823;33;20167;-83
2021/09/20 02:00:36;;;;;;;8.00;5.47;;;;;;;;;;4319615;33;20167;-83
2021/09/20 02:03:01;;;;;;;9.07;5.37;;;;;;;;;;4319286;33;20581;-83
2021/09/20 02:05:29;;;;;;;7.20;5.12;;;;;;;;;;4333510;33;20167;-82
2021/09/20 02:07:54;;;;;;;7.97;5.22;;;;;;;;;;4332935;33;20152;-83
2021/09/20 02:10:19;;;;;;;8.77;5.25;;;;;;;;;;4332550;33;20136;-82
2021/09/20 02:12:45;;;;;;;9.00;5.72;;;;;;;;;;4319449;33;20215;-82
2021/09/20 02:15:10;;;;;;;7.87;5.18;;;;;;;;;;4332773;33;20178;-83
2021/09/20 02:17:36;;;;;;;8.00;5.28;;;;;;;;;;4332543;33;20135;-83
2021/09/20 02:20:02;;;;;;;6.93;5.07;;;;;;;;;;4332725;33;20175;-82
2021/09/20 02:22:30;;;;;;;6.40;5.18;;;;;;;;;;4333058;33;20132;-82
2021/09/20 02:24:56;;;;;;;7.10;4.75;;;;;;;;;;4332596;33;20131;-82
2021/09/20 02:27:22;;;;;;;7.60;5.80;;;;;;;;;;4333180;33;20246;-82
2021/09/20 02:29:47;;;;;;;8.02;5.57;;;;;;;;;;4319202;33;20214;-83
2021/09/20 02:32:18;;;;;;;6.75;5.40;;;;;;;;;;4332722;33;20546;-82
2021/09/20 02:34:44;;;;;;;7.85;5.50;;;;;;;;;;4333173;33;20136;-81
2021/09/20 02:37:12;;;;;;;8.30;5.87;;;;;;;;;;4332206;33;20546;-82
2021/09/20 02:39:37;;;;;;;10.43;6.10;;;;;;;;;;4332405;33;20463;-82
2021/09/20 02:42:03;;;;;;;7.87;5.55;;;;;;;;;;4332083;33;20136;-81
2021/09/20 02:44:28;;;;;;;10.18;6.60;;;;;;;;;;4331999;33;20690;-81
2021/09/20 02:46:54;;;;;;;7.18;5.50;;;;;;;;;;4332240;33;20152;-82
2021/09/20 02:49:22;;;;;;;8.15;6.00;;;;;;;;;;4332427;33;20139;-82
2021/09/20 02:51:47;;;;;;;8.13;5.90;;;;;;;;;;4332426;33;20163;-82
2021/09/20 02:54:12;;;;;;;7.57;5.93;;;;;;;;;;4332330;33;20191;-81
2021/09/20 02:56:43;;;;;;;9.25;6.28;;;;;;;;;;4331930;33;20609;-81
2021/09/20 02:59:09;;;;;;;8.50;5.65;;;;;;;;;;4318811;33;20203;-82
2021/09/20 03:01:37;;;;;;;8.45;6.03;;;;;;;;;;4318516;33;20522;-81
2021/09/20 03:04:02;;;;;;;8.40;6.12;;;;;;;;;;4332319;33;20216;-82
2021/09/20 03:06:27;;;;;;;10.45;6.18;;;;;;;;;;4332035;33;20231;-82
2021/09/20 03:08:53;;;;;;;8.02;5.87;;;;;;;;;;4332462;33;20433;-83
2021/09/20 03:11:18;;;;;;;10.98;6.00;;;;;;;;;;4332438;33;20481;-81
2021/09/20 03:13:46;;;;;;;9.65;6.22;;;;;;;;;;4318373;33;20599;-82
2021/09/20 03:16:13;;;;;;;10.30;6.28;;;;;;;;;;4318363;33;20259;-82
2021/09/20 03:18:39;;;;;;;9.65;5.75;;;;;;;;;;4318606;33;20202;-82
2021/09/20 03:21:04;;;;;;;8.70;6.47;;;;;;;;;;4318512;33;20486;-82
2021/09/20 03:23:29;;;;;;;8.38;6.47;;;;;;;;;;4318923;33;20160;-81
2021/09/20 03:25:55;;;;;;;8.18;5.65;;;;;;;;;;4318099;33;20617;-82
2021/09/20 03:28:20;;;;;;;7.53;5.87;;;;;;;;;;4331845;33;20210;-82
2021/09/20 03:30:45;;;;;;;10.18;6.30;;;;;;;;;;4331935;33;20159;-82
2021/09/20 03:33:11;;;;;;;9.85;6.45;;;;;;;;;;4332042;33;20140;-81
2021/09/20 03:35:36;;;;;;;9.30;6.20;;;;;;;;;;4318281;33;20276;-82
2021/09/20 03:38:01;;;;;;;11.18;6.87;;;;;;;;;;4332045;33;20495;-82
2021/09/20 03:40:29;;;;;;;9.63;6.70;;;;;;;;;;4331563;33;20144;-82
2021/09/20 03:42:54;;;;;;;12.65;6.93;;;;;;;;;;4331697;33;20481;-84
2021/09/20 03:45:19;;;;;;;12.20;6.25;;;;;;;;;;4331197;33;20162;-83
2021/09/20 03:47:45;;;;;;;8.85;6.30;;;;;;;;;;4331556;33;20493;-83
2021/09/20 03:50:11;;;;;;;9.38;6.25;;;;;;;;;;4331195;33;20170;-81
2021/09/20 03:52:40;;;;;;;11.05;6.78;;;;;;;;;;4330994;33;20182;-81
2021/09/20 03:55:05;;;;;;;10.93;6.50;;;;;;;;;;4332235;33;20612;-81
2021/09/20 03:57:30;;;;;;;7.25;5.93;;;;;;;;;;4331511;33;20175;-81
2021/09/20 03:59:56;;;;;;;8.07;6.00;;;;;;;;;;4331620;33;20163;-83
2021/09/20 04:02:31;;;;;;;10.85;6.30;;;;;;;;;;4333471;33;20200;-83
2021/09/20 04:04:56;;;;;;;8.68;6.15;;;;;;;;;;4320119;33;20273;-82
2021/09/20 04:07:22;;;;;;;8.98;6.32;;;;;;;;;;4320834;33;20160;-82
2021/09/20 04:09:47;;;;;;;10.00;6.53;;;;;;;;;;4332396;33;20258;-82
2021/09/20 04:12:13;;;;;;;7.95;6.05;;;;;;;;;;4331340;33;20132;-82
2021/09/20 04:14:38;;;;;;;9.63;6.35;;;;;;;;;;4317851;33;20663;-81
2021/09/20 04:17:07;;;;;;;8.50;6.05;;;;;;;;;;4331294;33;20133;-82
2021/09/20 04:19:34;;;;;;;10.43;6.30;;;;;;;;;;4317914;33;20143;-82
2021/09/20 04:22:00;;;;;;;10.65;6.35;;;;;;;;;;4330661;33;20450;-82
2021/09/20 04:24:25;;;;;;;10.13;6.32;;;;;;;;;;4330997;33;20127;-79
2021/09/20 04:26:50;;;;;;;9.32;6.37;;;;;;;;;;4331126;33;20171;-81
2021/09/20 04:29:16;;;;;;;7.80;5.82;;;;;;;;;;4331557;33;20206;-82
2021/09/20 04:31:41;;;;;;;9.10;6.30;;;;;;;;;;4331249;33;20132;-81
2021/09/20 04:34:06;;;;;;;8.43;5.97;;;;;;;;;;4331115;33;20136;-82
2021/09/20 04:36:32;;;;;;;8.70;6.35;;;;;;;;;;4316883;33;20339;-81
2021/09/20 04:38:57;;;;;;;7.12;5.35;;;;;;;;;;4331131;33;20132;-82
2021/09/20 04:41:23;;;;;;;10.05;5.93;;;;;;;;;;4330435;33;20140;-82
2021/09/20 04:43:48;;;;;;;9.80;6.60;;;;;;;;;;4317391;33;20233;-82
2021/09/20 04:46:13;;;;;;;8.65;5.87;;;;;;;;;;4330508;33;20159;-82
2021/09/20 04:48:39;;;;;;;9.30;5.75;;;;;;;;;;4317308;33;20155;-81
2021/09/20 04:51:04;;;;;;;9.00;5.85;;;;;;;;;;4330410;33;20135;-82
2021/09/20 04:53:29;;;;;;;8.90;6.10;;;;;;;;;;4331240;33;20194;-82
2021/09/20 04:55:55;;;;;;;10.32;6.50;;;;;;;;;;4316801;33;20160;-81
2021/09/20 04:58:20;;;;;;;8.02;5.95;;;;;;;;;;4331322;33;20162;-81
2021/09/20 05:00:45;;;;;;;8.52;5.57;;;;;;;;;;4317616;33;20202;-82
2021/09/20 05:03:11;;;;;;;9.93;5.65;;;;;;;;;;4331763;33;20150;-83
2021/09/20 05:05:36;;;;;;;8.50;6.60;;;;;;;;;;4333535;33;20155;-82
2021/09/20 05:08:01;;;;;;;10.45;6.22;;;;;;;;;;4334230;33;20219;-82
2021/09/20 05:10:27;;;;;;;10.55;6.03;;;;;;;;;;4333889;33;20202;-81
2021/09/20 05:12:52;;;;;;;9.25;5.93;;;;;;;;;;4333629;33;20136;-80
2021/09/20 05:15:21;;;;;;;9.05;6.12;;;;;;;;;;4320857;33;20210;-80
2021/09/20 05:17:46;;;;;;;8.80;6.20;;;;;;;;;;4333684;33;20272;-81
2021/09/20 05:20:15;;;;;;;9.93;6.37;;;;;;;;;;4333493;33;20474;-80
2021/09/20 05:22:44;;;;;;;9.73;6.62;;;;;;;;;;4333346;33;20175;-79
2021/09/20 05:25:09;;;;;;;10.25;6.53;;;;;;;;;;4333677;33;20147;-82
2021/09/20 05:27:35;;;;;;;7.93;6.07;;;;;;;;;;4320305;33;20570;-79
2021/09/20 05:30:02;;;;;;;9.13;6.32;;;;;;;;;;4320730;33;20164;-80
2021/09/20 05:32:28;;;;;;;8.35;6.18;;;;;;;;;;4334854;33;20132;-80
2021/09/20 05:34:53;;;;;;;8.57;6.32;;;;;;;;;;4320766;33;20493;-81
2021/09/20 05:37:18;;;;;;;9.10;6.10;;;;;;;;;;4334781;33;20140;-81
2021/09/20 05:39:44;;;;;;;9.20;5.93;;;;;;;;;;4321122;33;20172;-80
2021/09/20 05:42:09;;;;;;;9.95;6.32;;;;;;;;;;4321112;33;20156;-81
2021/09/20 05:44:35;;;;;;;9.85;6.47;;;;;;;;;;4334160;33;20144;-79
2021/09/20 05:47:00;;;;;;;8.38;5.97;;;;;;;;;;4335096;33;20156;-80
2021/09/20 05:49:26;;;;;;;9.75;6.22;;;;;;;;;;4321051;33;20160;-81
2021/09/20 05:51:51;;;;;;;14.07;6.95;;;;;;;;;;4335120;33;20132;-80
2021/09/20 05:54:17;;;;;;;8.07;6.18;;;;;;;;;;4320027;33;20168;-80
2021/09/20 05:56:45;;;;;;;9.50;6.18;;;;;;;;;;4333573;33;20174;-80
2021/09/20 05:59:10;;;;;;;8.77;6.35;;;;;;;;;;4333356;33;20206;-80
2021/09/20 06:01:35;;;;;;;10.63;6.70;;;;;;;;;;4319630;33;20163;-81
2021/09/20 06:04:01;;;;;;;9.48;5.85;;;;;;;;;;4333447;33;20144;-76
2021/09/20 06:06:26;;;;;;;8.50;6.32;;;;;;;;;;4332833;33;20227;-80
2021/09/20 06:08:51;;;;;;;8.15;6.25;;;;;;;;;;4333095;33;20154;-79
2021/09/20 06:11:17;;;;;;;10.60;7.12;;;;;;;;;;4333002;33;20136;-80
2021/09/20 06:13:42;;;;;;;12.65;7.00;;;;;;;;;;4332848;33;20170;-79
2021/09/20 06:16:07;;;;;;;13.23;7.25;;;;;;;;;;4332262;33;20482;-78
2021/09/20 06:18:33;;;;;;;8.88;6.40;;;;;;;;;;4319223;33;20202;-79
2021/09/20 06:20:58;;;;;;;10.52;6.87;;;;;;;;;;4332511;33;20163;-81
2021/09/20 06:23:26;;;;;;;10.85;7.10;;;;;;;;;;4333332;33;20128;-80
2021/09/20 06:25:52;;;;;;;10.90;7.10;;;;;;;;;;4319129;33;20169;-80
2021/09/20 06:28:20;;;;;;;9.40;6.78;;;;;;;;;;4332522;33;20140;-80
2021/09/20 06:30:46;;;;;;;9.35;7.12;;;;;;;;;;4332964;33;20125;-79
2021/09/20 06:33:11;;;;;;;9.48;6.45;;;;;;;;;;4332991;33;20136;-79
2021/09/20 06:35:36;;;;;;;9.35;6.32;;;;;;;;;;4332621;33;20162;-80
2021/09/20 06:38:02;;;;;;;15.77;7.12;;;;;;;;;;4332419;33;20219;-79
2021/09/20 06:40:28;;;;;;;12.30;6.90;;;;;;;;;;4318851;33;20514;-80
2021/09/20 06:42:54;;;;;;;9.40;6.72;;;;;;;;;;4332198;33;20428;-81
2021/09/20 06:45:19;;;;;;;9.85;6.35;;;;;;;;;;4318782;33;20183;-81
2021/09/20 06:47:44;;;;;;;10.65;7.30;;;;;;;;;;4332386;33;20128;-80
2021/09/20 06:50:10;;;;;;;11.05;7.20;;;;;;;;;;4318831;33;20155;-80
2021/09/20 06:52:36;;;;;;;12.45;7.35;;;;;;;;;;4332574;33;20148;-79
2021/09/20 06:55:01;;;;;;;10.90;6.20;;;;;;;;;;4318709;33;20652;-81
2021/09/20 06:57:26;;;;;;;9.57;6.50;;;;;;;;;;4318427;33;20159;-81
2021/09/20 06:59:52;;;;;;;10.68;6.80;;;;;;;;;;4332098;33;20166;-80
2021/09/20 07:02:17;;;;;;;9.35;6.50;;;;;;;;;;4332057;33;20207;-79
2021/09/20 07:04:42;;;;;;;10.50;6.50;;;;;;;;;;4319102;33;20159;-80
2021/09/20 07:07:08;;;;;;;11.75;7.20;;;;;;;;;;4331639;33;20168;-80
2021/09/20 07:09:33;;;;;;;10.90;7.07;;;;;;;;;;4331876;33;20178;-81
2021/09/20 07:11:58;;;;;;;11.23;6.93;;;;;;;;;;4331760;33;20565;-82
2021/09/20 07:14:24;;;;;;;10.90;7.43;;;;;;;;;;4332053;33;20179;-80
2021/09/20 07:16:49;;;;;;;9.15;6.78;;;;;;;;;;4332418;33;20124;-80
2021/09/20 07:19:14;;;;;;;10.80;7.37;;;;;;;;;;4331751;33;20159;-80
2021/09/20 07:21:39;;;;;;;8.90;6.85;;;;;;;;;;4340281;33;20143;-82
2021/09/20 07:24:11;;;;;;;9.88;6.55;;;;;;;;;;4346364;33;20166;-81
2021/09/20 07:26:36;;;;;;;10.35;6.65;;;;;;;;;;4346310;33;20128;-82
2021/09/20 07:29:02;;;;;;;12.10;6.90;;;;;;;;;;4345954;33;20136;-83
2021/09/20 07:31:30;;;;;;;11.55;7.68;;;;;;;;;;4346404;33;20154;-81
2021/09/20 07:33:55;;;;;;;9.40;6.35;;;;;;;;;;4330870;33;20242;-79
2021/09/20 07:36:20;;;;;;;10.90;6.57;;;;;;;;;;4330014;33;20160;-80
2021/09/20 07:38:46;;;;;;;9.38;6.75;;;;;;;;;;4343206;33;20262;-80
2021/09/20 07:41:11;;;;;;;9.63;6.60;;;;;;;;;;4345880;33;20174;-80
2021/09/20 07:43:38;;;;;;;10.25;6.30;;;;;;;;;;4345705;33;20189;-81
2021/09/20 07:46:09;;;;;;;9.00;6.75;;;;;;;;;;4346104;33;20542;-81
2021/09/20 07:48:34;;;;;;;9.65;6.62;;;;;;;;;;4346598;33;20448;-81
2021/09/20 07:51:02;;;;;;;9.73;6.53;;;;;;;;;;4346061;33;20140;-81
2021/09/20 07:53:40;;;;;;;11.25;6.53;;;;;;;;;;4346615;33;20192;-82
2021/09/20 07:56:05;;;;;;;9.80;6.60;;;;;;;;;;4331609;33;20167;-82
2021/09/20 07:58:30;;;;;;;8.95;6.15;;;;;;;;;;4345804;33;20152;-81
2021/09/20 08:00:59;;;;;;;9.70;6.53;;;;;;;;;;4346071;33;20158;-81
2021/09/20 08:03:25;;;;;;;11.95;6.87;;;;;;;;;;4345827;33;20537;-80
2021/09/20 08:05:52;;;;;;;10.63;6.68;;;;;;;;;;4329693;33;20156;-81
2021/09/20 08:08:17;;;;;;;10.18;6.47;;;;;;;;;;4329625;33;20155;-80
2021/09/20 08:10:56;;;;;;;11.65;6.78;;;;;;;;;;4329860;33;20155;-80
2021/09/20 08:13:22;;;;;;;13.38;6.93;;;;;;;;;;4340687;33;20198;-82
2021/09/20 08:15:47;;;;;;;12.00;7.30;;;;;;;;;;4345313;33;20127;-80
2021/09/20 08:18:14;;;;;;;11.25;7.28;;;;;;;;;;4329415;33;20176;-80
2021/09/20 08:20:48;;;;;;;10.65;7.40;;;;;;;;;;4342050;33;20193;-81
2021/09/20 08:23:17;;;;;;;14.23;7.70;;;;;;;;;;4345548;33;20127;-80
2021/09/20 08:25:43;;;;;;;11.82;7.87;;;;;;;;;;4345352;33;20136;-82
2021/09/20 08:28:18;;;;;;;;;;;;;;;;;;;;;
2021/09/20 08:30:44;;;;;;;11.32;8.30;;;;;;;;;;4343527;33;20458;-80
2021/09/20 08:33:15;;;;;;;10.88;7.57;;;;;;;;;;4345442;33;20277;-80
2021/09/20 08:35:43;;;;;;;12.27;7.97;;;;;;;;;;4346323;33;20615;-81
2021/09/20 08:38:08;;;;;;;9.85;7.95;;;;;;;;;;4345938;33;20692;-81
2021/09/20 08:40:34;;;;;;;9.50;7.15;;;;;;;;;;4345387;33;20135;-82
2021/09/20 08:43:00;;;;;;;12.82;8.82;;;;;;;;;;4331759;33;20187;-81
2021/09/20 08:45:26;;;;;;;12.35;7.82;;;;;;;;;;4345358;33;20140;-81
2021/09/20 08:47:52;;;;;;;11.10;8.20;;;;;;;;;;4345767;33;20140;-78
2021/09/20 08:50:22;;;;;;;10.50;8.32;;;;;;;;;;4345006;33;20201;-81
2021/09/20 08:52:47;;;;;;;13.95;9.15;;;;;;;;;;4345579;33;20163;-81
2021/09/20 08:55:14;;;;;;;10.93;8.75;;;;;;;;;;4329283;33;20648;-77
2021/09/20 08:57:39;;;;;;;11.95;9.40;;;;;;;;;;4342902;33;20202;-81
2021/09/20 09:00:06;;;;;;;12.07;9.25;;;;;;;;;;4345053;33;20203;-81
2021/09/20 09:02:31;;;;;;;11.93;9.10;;;;;;;;;;4345046;33;20173;-79
2021/09/20 09:05:14;;;;;;;12.45;9.38;;;;;;;;;;4345364;33;20147;-82
2021/09/20 09:07:43;;;;;;;12.25;9.48;;;;;;;;;;4345246;33;20171;-81
2021/09/20 09:10:09;;;;;;;11.77;8.93;;;;;;;;;;4344945;33;20240;-81
2021/09/20 09:12:36;;;;;;;10.73;9.00;;;;;;;;;;4344851;33;20577;-81
2021/09/20 09:15:05;;;;;;;11.25;8.73;;;;;;;;;;4345153;33;20140;-81
2021/09/20 09:17:31;;;;;;;12.50;9.40;;;;;;;;;;4345726;33;20158;-82
2021/09/20 09:20:18;;;;;;;13.55;8.73;;;;;;;;;;4345594;33;20143;-81
2021/09/20 09:22:47;;;;;;;10.57;8.40;;;;;;;;;;4338040;33;20171;-82
2021/09/20 09:25:14;;;;;;;10.90;8.20;;;;;;;;;;4330081;33;20140;-80
2021/09/20 09:27:40;;;;;;;10.40;7.70;;;;;;;;;;4330089;33;20435;-81
2021/09/20 09:30:08;;;;;;;12.13;7.87;;;;;;;;;;4330471;33;20166;-81
2021/09/20 09:32:33;;;;;;;13.13;8.27;;;;;;;;;;4330427;33;20175;-81
2021/09/20 09:35:08;;;;;;;11.95;8.23;;;;;;;;;;4330210;33;20666;-80
2021/09/20 09:37:34;;;;;;;11.55;8.50;;;;;;;;;;4330816;33;20227;-79
2021/09/20 09:40:08;;;;;;;10.52;8.23;;;;;;;;;;4330033;33;20243;-80
2021/09/20 09:42:33;;;;;;;10.00;8.00;;;;;;;;;;4330312;33;20156;-81
2021/09/20 09:45:11;;;;;;;11.87;8.67;;;;;;;;;;4330079;33;20581;-80
2021/09/20 09:47:37;;;;;;;11.50;9.10;;;;;;;;;;4330665;33;20232;-80
2021/09/20 09:50:17;;;;;;;10.70;8.15;;;;;;;;;;4330336;33;20455;-81
2021/09/20 09:52:46;;;;;;;11.27;8.57;;;;;;;;;;4332564;33;20135;-82
2021/09/20 09:55:12;;;;;;;10.65;8.32;;;;;;;;;;4332260;33;20210;-81
2021/09/20 09:57:37;;;;;;;12.00;8.27;;;;;;;;;;4343454;33;20155;-80
2021/09/20 10:00:13;;;;;;;11.20;8.23;;;;;;;;;;4333714;33;20218;-80
2021/09/20 10:02:51;;;;;;;11.40;8.52;;;;;;;;;;4347196;33;20438;-79
2021/09/20 10:05:23;;;;;;;11.80;8.80;;;;;;;;;;4347635;33;20205;-81
2021/09/20 10:07:50;;;;;;;19.50;8.63;;;;;;;;;;4347583;33;20186;-81
2021/09/20 10:10:17;;;;;;;11.43;8.68;;;;;;;;;;4347836;33;20131;-80
2021/09/20 10:12:43;;;;;;;13.20;8.95;;;;;;;;;;4347520;33;20211;-81
2021/09/20 10:15:10;;;;;;;11.27;8.13;;;;;;;;;;4341210;33;20339;-81
2021/09/20 10:17:41;;;;;;;9.73;7.28;;;;;;;;;;4347173;33;20131;-82
2021/09/20 10:20:08;;;;;;;9.95;8.07;;;;;;;;;;4333761;33;20229;-83
2021/09/20 10:22:33;;;;;;;9.68;7.60;;;;;;;;;;4347857;33;20140;-82
2021/09/20 10:25:00;;;;;;;10.30;7.82;;;;;;;;;;4347521;33;20201;-82
2021/09/20 10:27:26;;;;;;;9.13;7.03;;;;;;;;;;4333934;33;20504;-81
2021/09/20 10:29:54;;;;;;;9.05;7.40;;;;;;;;;;4347170;33;20160;-81
2021/09/20 10:32:25;;;;;;;8.63;7.20;;;;;;;;;;4333265;33;20702;-81
2021/09/20 10:34:50;;;;;;;7.70;5.68;;;;;;;;;;4347072;33;20554;-80
2021/09/20 10:37:22;;;;;;;9.10;5.82;;;;;;;;;;4347003;33;20206;-80
2021/09/20 10:39:47;;;;;;;6.12;5.40;;;;;;;;;;4347048;33;20190;-80
2021/09/20 10:42:46;;;;;;;7.43;5.65;;;;;;;;;;4346776;33;20144;-81
2021/09/20 10:45:33;;;;;;;7.87;5.80;;;;;;;;;;4346830;33;20220;-81
2021/09/20 10:48:13;;;;;;;9.50;5.70;;;;;;;;;;4347323;33;20360;-81
2021/09/20 10:50:59;;;;;;;12.45;6.87;;;;;;;;;;4346758;33;20463;-81
2021/09/20 10:53:31;;;;;;;8.35;5.80;;;;;;;;;;4346951;33;20131;-81
2021/09/20 10:56:00;;;;;;;6.53;5.57;;;;;;;;;;4346940;33;20127;-81
2021/09/20 10:58:25;;;;;;;10.48;5.72;;;;;;;;;;4346506;33;20194;-81
2021/09/20 11:01:10;;;;;;;7.60;6.53;;;;;;;;;;4346848;33;20526;-81
2021/09/20 11:03:39;;;;;;;10.70;5.85;;;;;;;;;;4346586;33;20588;-80
2021/09/20 11:06:20;;;;;;;7.80;5.97;;;;;;;;;;4333181;33;20167;-80
2021/09/20 11:08:45;;;;;;;9.15;6.37;;;;;;;;;;4332936;33;20589;-80
2021/09/20 11:11:29;;;;;;;6.90;5.85;;;;;;;;;;4332735;33;20189;-80
2021/09/20 11:14:02;;;;;;;6.30;4.95;;;;;;;;;;4346193;33;20131;-79
2021/09/20 11:16:45;;;;;;;6.35;4.82;;;;;;;;;;4346470;33;20143;-81
2021/09/20 11:19:31;;;;;;;5.57;4.93;;;;;;;;;;4346538;33;20143;-80
2021/09/20 11:22:05;;;;;;;6.55;4.85;;;;;;;;;;4347393;33;20217;-81
2021/09/20 11:24:35;;;;;;;6.07;4.70;;;;;;;;;;4346217;33;20155;-81
2021/09/20 11:27:05;;;;;;;8.90;4.47;;;;;;;;;;4346783;33;20468;-81
2021/09/20 11:29:31;;;;;;;6.62;4.68;;;;;;;;;;4346751;33;20143;-81
2021/09/20 11:31:56;;;;;;;6.40;5.00;;;;;;;;;;4346411;33;20549;-82
2021/09/20 11:34:29;;;;;;;5.18;4.53;;;;;;;;;;4346140;33;20235;-81
2021/09/20 11:37:07;;;;;;;6.05;4.32;;;;;;;;;;4346228;33;20232;-78
2021/09/20 11:39:43;;;;;;;7.60;5.18;;;;;;;;;;4346071;33;20138;-80
2021/09/20 11:42:08;;;;;;;5.78;4.60;;;;;;;;;;4346328;33;20166;-80
2021/09/20 11:44:34;;;;;;;6.60;4.37;;;;;;;;;;4346250;33;20537;-81
2021/09/20 11:46:59;;;;;;;8.38;4.50;;;;;;;;;;4332395;33;20182;-80
2021/09/20 11:49:26;;;;;;;6.60;4.45;;;;;;;;;;4346204;33;20143;-80
2021/09/20 11:51:52;;;;;;;6.65;4.97;;;;;;;;;;4346322;33;20144;-80
2021/09/20 11:54:28;;;;;;;5.30;4.50;;;;;;;;;;4345960;33;20186;-81
2021/09/20 11:56:53;;;;;;;6.18;4.80;;;;;;;;;;4345351;33;20175;-77
2021/09/20 11:59:19;;;;;;;5.07;4.33;;;;;;;;;;4345992;33;20179;-81
2021/09/20 12:01:50;;;;;;;5.90;4.43;;;;;;;;;;4345995;33;20244;-80
2021/09/20 12:04:16;;;;;;;6.85;4.55;;;;;;;;;;4346121;33;20178;-80
2021/09/20 12:06:42;;;;;;;4.90;4.20;;;;;;;;;;4331901;33;20596;-80
2021/09/20 12:09:09;;;;;;;5.00;4.50;;;;;;;;;;4346349;33;20240;-79
2021/09/20 12:11:34;;;;;;;5.20;4.35;;;;;;;;;;4345329;33;20189;-80
2021/09/20 12:14:08;;;;;;;5.20;4.53;;;;;;;;;;4345095;33;20525;-80
2021/09/20 12:16:42;;;;;;;5.37;4.40;;;;;;;;;;4345749;33;20132;-81
2021/09/20 12:19:20;;;;;;;5.70;4.32;;;;;;;;;;4332272;33;20221;-81
2021/09/20 12:21:53;;;;;;;7.15;4.22;;;;;;;;;;4345631;33;20147;-80
2021/09/20 12:24:21;;;;;;;4.32;3.58;;;;;;;;;;4346177;33;20162;-81
2021/09/20 12:26:47;;;;;;;6.30;5.30;;;;;;;;;;4346216;33;20159;-81
2021/09/20 12:29:14;;;;;;;6.43;4.32;;;;;;;;;;4345586;33;20170;-79
2021/09/20 12:31:43;;;;;;;5.90;4.47;;;;;;;;;;4331723;33;20166;-79
2021/09/20 12:34:12;;;;;;;6.40;5.18;;;;;;;;;;4345006;33;20197;-80
2021/09/20 12:36:41;;;;;;;8.65;5.00;;;;;;;;;;4345302;33;20139;-79
2021/09/20 12:39:39;;;;;;;6.30;5.12;;;;;;;;;;4331498;33;20609;-80
2021/09/20 12:42:07;;;;;;;5.82;5.22;;;;;;;;;;4304489;33;20255;-78
2021/09/20 12:44:36;;;;;;;5.78;5.20;;;;;;;;;;4345318;33;20546;-79
2021/09/20 12:47:11;;;;;;;7.62;5.00;;;;;;;;;;4331895;33;20624;-80
2021/09/20 12:49:36;;;;;;;6.47;4.80;;;;;;;;;;4345605;33;20241;-80
2021/09/20 12:52:04;;;;;;;5.43;4.90;;;;;;;;;;4344811;33;20546;-80
2021/09/20 12:54:32;;;;;;;6.37;5.37;;;;;;;;;;4337694;33;20230;-81
2021/09/20 12:57:13;;;;;;;6.43;5.00;;;;;;;;;;4338256;33;20209;-78
2021/09/20 12:59:39;;;;;;;5.47;4.60;;;;;;;;;;4345373;33;20268;-79
2021/09/20 13:02:09;;;;;;;6.32;5.12;;;;;;;;;;4345456;33;20170;-80
2021/09/20 13:04:36;;;;;;;9.48;5.53;;;;;;;;;;4345509;33;20139;-81
2021/09/20 13:07:12;;;;;;;12.23;6.00;;;;;;;;;;4345784;33;20144;-80
2021/09/20 13:09:57;;;;;;;6.95;5.80;;;;;;;;;;4344129;33;20188;-81
2021/09/20 13:12:23;;;;;;;8.15;5.28;;;;;;;;;;4344472;33;20193;-80
2021/09/20 13:14:54;;;;;;;7.75;5.37;;;;;;;;;;4331045;33;20183;-80
2021/09/20 13:17:30;;;;;;;6.80;5.20;;;;;;;;;;4344771;33;20210;-78
2021/09/20 13:20:04;;;;;;;8.68;5.90;;;;;;;;;;4331157;33;20221;-80
2021/09/20 13:22:32;;;;;;;7.62;5.22;;;;;;;;;;4345137;33;20170;-79
2021/09/20 13:24:57;;;;;;;7.43;5.70;;;;;;;;;;4344513;33;20170;-80
2021/09/20 13:27:23;;;;;;;7.40;5.43;;;;;;;;;;4347910;33;20546;-79
2021/09/20 13:29:48;;;;;;;7.40;5.28;;;;;;;;;;4347766;33;20197;-78
2021/09/20 13:32:14;;;;;;;6.53;5.78;;;;;;;;;;4334545;33;20214;-80
2021/09/20 13:34:40;;;;;;;5.97;5.20;;;;;;;;;;4347582;33;20197;-79
2021/09/20 13:37:05;;;;;;;6.35;5.12;;;;;;;;;;4347004;33;20211;-80
2021/09/20 13:39:30;;;;;;;7.37;6.28;;;;;;;;;;4333348;33;20635;-80
2021/09/20 13:41:57;;;;;;;6.70;5.93;;;;;;;;;;4347020;33;20136;-81
2021/09/20 13:44:22;;;;;;;7.12;5.72;;;;;;;;;;4347642;33;20136;-78
2021/09/20 13:46:47;;;;;;;8.05;6.25;;;;;;;;;;4347637;33;20167;-77
2021/09/20 13:49:14;;;;;;;7.53;6.20;;;;;;;;;;4348079;33;20174;-80
2021/09/20 13:51:39;;;;;;;9.95;6.68;;;;;;;;;;4347189;33;20243;-80
2021/09/20 13:54:05;;;;;;;7.47;6.07;;;;;;;;;;4347068;33;20550;-81
2021/09/20 13:56:30;;;;;;;8.88;6.43;;;;;;;;;;4347213;33;20230;-79
2021/09/20 13:58:56;;;;;;;11.23;6.12;;;;;;;;;;4333504;33;20209;-77
2021/09/20 14:01:24;;;;;;;7.47;5.97;;;;;;;;;;4334395;33;20168;-77
2021/09/20 14:03:51;;;;;;;6.35;5.47;;;;;;;;;;4347172;33;20172;-80
2021/09/20 14:06:19;;;;;;;8.55;5.93;;;;;;;;;;4346914;33;20227;-81
2021/09/20 14:08:44;;;;;;;8.48;4.93;;;;;;;;;;4334163;33;20234;-80
2021/09/20 14:11:12;;;;;;;5.90;5.03;;;;;;;;;;4346838;33;20485;-79
2021/09/20 14:13:37;;;;;;;5.30;4.80;;;;;;;;;;4347342;33;20457;-79
2021/09/20 14:16:03;;;;;;;7.18;5.22;;;;;;;;;;4347236;33;20161;-81
2021/09/20 14:18:28;;;;;;;5.72;4.53;;;;;;;;;;4334040;33;20349;-80
2021/09/20 14:20:53;;;;;;;7.45;4.97;;;;;;;;;;4346772;33;20207;-80
2021/09/20 14:23:19;;;;;;;7.75;5.28;;;;;;;;;;4347582;33;20474;-80
2021/09/20 14:25:47;;;;;;;5.40;4.85;;;;;;;;;;4334519;33;20159;-80
2021/09/20 14:28:14;;;;;;;7.43;5.10;;;;;;;;;;4347606;33;20255;-80
2021/09/20 14:30:40;;;;;;;6.95;4.97;;;;;;;;;;4346853;33;20221;-80
2021/09/20 14:33:05;;;;;;;7.00;4.87;;;;;;;;;;4347419;33;20156;-79
2021/09/20 14:35:31;;;;;;;9.20;5.10;;;;;;;;;;4346904;33;20164;-79
2021/09/20 14:37:57;;;;;;;8.77;5.47;;;;;;;;;;4346720;33;20480;-79
2021/09/20 14:40:24;;;;;;;7.10;4.87;;;;;;;;;;4346299;33;20151;-80
2021/09/20 14:42:50;;;;;;;7.12;4.95;;;;;;;;;;4346885;33;20179;-80
2021/09/20 14:45:16;;;;;;;6.87;4.78;;;;;;;;;;4332716;33;20521;-77